createdAt,value
2023-04-14T00:02:25.850Z,2.60
2023-04-14T00:04:53.930Z,2.60
2023-04-14T00:07:21.381Z,2.50
2023-04-14T00:09:47.823Z,2.80
2023-04-14T00:12:15.950Z,2.50
2023-04-14T00:14:43.005Z,2.40
2023-04-14T00:17:09.952Z,2.80
2023-04-14T00:19:36.884Z,2.70
2023-04-14T00:22:03.533Z,2.90
2023-04-14T00:24:32.770Z,3.00
2023-04-14T00:27:00.712Z,3.60
2023-04-14T00:29:27.741Z,2.40
2023-04-14T00:31:54.468Z,2.60
2023-04-14T00:34:22.504Z,2.70
2023-04-14T00:36:49.337Z,2.80
2023-04-14T00:39:16.130Z,2.70
2023-04-14T00:41:42.755Z,3.00
2023-04-14T00:44:09.340Z,3.10
2023-04-14T00:46:36.608Z,2.90
2023-04-14T00:49:03.569Z,3.10
2023-04-14T00:51:31.770Z,3.00
2023-04-14T00:54:02.018Z,2.90
2023-04-14T00:56:30.994Z,3.00
2023-04-14T00:59:02.720Z,2.60
2023-04-14T01:01:31.013Z,3.10
2023-04-14T01:03:58.314Z,3.30
2023-04-14T01:06:26.551Z,3.40
2023-04-14T01:08:55.001Z,3.30
2023-04-14T01:11:56.422Z,2.90
2023-04-14T01:14:32.371Z,3.60
2023-04-14T01:17:14.404Z,3.40
2023-04-14T01:19:52.906Z,3.60
2023-04-14T01:22:25.973Z,3.80
2023-04-14T01:25:26.767Z,3.50
2023-04-14T01:28:30.963Z,4.00
2023-04-14T01:31:17.910Z,4.90
2023-04-14T01:34:18.168Z,4.60
2023-04-14T01:37:02.970Z,4.20
2023-04-14T01:39:42.101Z,5.30
2023-04-14T01:42:16.945Z,5.30
2023-04-14T01:44:46.519Z,5.20
2023-04-14T01:47:19.950Z,5.30
2023-04-14T01:49:52.939Z,6.10
2023-04-14T01:52:21.730Z,5.50
2023-04-14T01:54:52.826Z,5.90
2023-04-14T01:57:22.192Z,5.50
2023-04-14T01:59:54.098Z,5.90
2023-04-14T02:02:26.076Z,5.80
2023-04-14T02:04:58.002Z,5.70
2023-04-14T02:07:27.250Z,6.20
2023-04-14T02:09:57.216Z,6.40
2023-04-14T02:12:27.659Z,6.10
2023-04-14T02:14:55.265Z,6.30
2023-04-14T02:17:26.655Z,5.60
2023-04-14T02:19:55.482Z,6.30
2023-04-14T02:22:22.075Z,6.10
2023-04-14T02:24:48.918Z,6.60
2023-04-14T02:27:52.484Z,5.70
2023-04-14T02:30:45.858Z,6.60
2023-04-14T02:33:20.386Z,7.60
2023-04-14T02:36:31.767Z,7.50
2023-04-14T02:39:09.888Z,7.40
2023-04-14T02:41:42.831Z,7.50
2023-04-14T02:44:21.399Z,7.20
2023-04-14T02:47:11.924Z,6.80
2023-04-14T02:49:46.085Z,7.20
2023-04-14T02:54:45.785Z,9.00
2023-04-14T02:57:13.493Z,8.10
2023-04-14T02:59:42.690Z,7.70
2023-04-14T03:02:12.029Z,7.80
2023-04-14T03:04:41.245Z,7.60
2023-04-14T03:07:11.088Z,7.80
2023-04-14T03:09:39.661Z,8.30
2023-04-14T03:12:07.431Z,7.50
2023-04-14T03:14:37.266Z,8.40
2023-04-14T03:17:05.413Z,7.00
2023-04-14T03:19:33.624Z,6.00
2023-04-14T03:22:04.869Z,7.20
2023-04-14T03:24:34.267Z,7.20
2023-04-14T03:27:08.204Z,8.00
2023-04-14T03:29:44.273Z,7.60
2023-04-14T03:32:17.123Z,7.40
2023-04-14T03:34:51.066Z,7.50
2023-04-14T03:37:22.147Z,6.40
2023-04-14T03:39:53.385Z,5.90
2023-04-14T03:42:21.742Z,6.60
2023-04-14T03:44:53.890Z,5.90
2023-04-14T03:47:22.973Z,6.60
2023-04-14T03:49:57.243Z,6.00
2023-04-14T03:52:27.896Z,8.20
2023-04-14T03:54:59.803Z,8.00
2023-04-14T03:57:30.946Z,7.30
2023-04-14T04:00:05.309Z,7.50
2023-04-14T04:02:32.714Z,7.80
2023-04-14T04:05:02.624Z,6.80
2023-04-14T04:07:31.941Z,7.20
2023-04-14T04:10:00.121Z,7.10
2023-04-14T04:12:32.499Z,8.30
2023-04-14T04:14:59.209Z,7.80
2023-04-14T04:17:29.384Z,7.10
2023-04-14T04:20:01.706Z,6.60
2023-04-14T04:22:29.959Z,7.80
2023-04-14T04:25:05.348Z,7.60
2023-04-14T04:27:33.425Z,6.50
2023-04-14T04:30:00.032Z,7.30
2023-04-14T04:32:28.320Z,7.70
2023-04-14T04:34:58.731Z,8.70
2023-04-14T04:37:28.491Z,7.80
2023-04-14T04:39:58.075Z,7.10
2023-04-14T04:42:27.829Z,7.90
2023-04-14T04:44:57.542Z,7.30
2023-04-14T04:47:24.616Z,7.20
2023-04-14T04:49:51.301Z,7.20
2023-04-14T04:52:18.360Z,7.90
2023-04-14T04:54:45.620Z,7.50
2023-04-14T04:57:13.121Z,7.80
2023-04-14T04:59:41.252Z,7.90
2023-04-14T05:02:09.415Z,8.10
2023-04-14T05:04:37.598Z,7.50
2023-04-14T05:07:04.171Z,7.60
2023-04-14T05:09:31.171Z,7.70
2023-04-14T05:11:57.950Z,7.70
2023-04-14T05:14:27.504Z,7.80
2023-04-14T05:16:54.332Z,8.00
2023-04-14T05:19:21.812Z,7.60
2023-04-14T05:21:48.748Z,6.10
2023-04-14T05:24:15.169Z,6.80
2023-04-14T05:26:51.750Z,8.00
2023-04-14T05:29:25.450Z,8.00
2023-04-14T05:31:52.078Z,7.40
2023-04-14T05:34:19.751Z,8.40
2023-04-14T05:36:46.724Z,8.10
2023-04-14T05:39:14.015Z,8.30
2023-04-14T05:41:42.005Z,8.40
2023-04-14T05:44:10.942Z,7.50
2023-04-14T05:46:37.861Z,7.80
2023-04-14T05:49:04.753Z,8.00
2023-04-14T05:51:32.439Z,7.60
2023-04-14T05:53:59.182Z,7.60
2023-04-14T05:56:27.183Z,7.50
2023-04-14T05:58:55.172Z,7.10
2023-04-14T06:01:21.934Z,7.20
2023-04-14T06:03:48.533Z,6.60
2023-04-14T06:06:15.607Z,5.90
2023-04-14T06:08:42.171Z,5.10
2023-04-14T06:11:10.593Z,5.00
2023-04-14T06:13:37.182Z,5.60
2023-04-14T06:16:04.384Z,6.10
2023-04-14T06:18:33.079Z,5.80
2023-04-14T06:21:01.294Z,6.00
2023-04-14T06:23:27.824Z,5.60
2023-04-14T06:25:55.102Z,5.90
2023-04-14T06:28:23.365Z,5.90
2023-04-14T06:30:49.921Z,5.90
2023-04-14T06:33:17.129Z,5.40
2023-04-14T06:35:44.897Z,5.40
2023-04-14T06:38:11.561Z,5.30
2023-04-14T06:40:38.548Z,5.20
2023-04-14T06:43:07.379Z,5.90
2023-04-14T06:45:34.340Z,5.10
2023-04-14T06:48:01.286Z,5.70
2023-04-14T06:50:27.713Z,5.00
2023-04-14T06:52:55.395Z,4.90
2023-04-14T06:55:26.555Z,5.70
2023-04-14T06:57:52.990Z,6.00
2023-04-14T07:00:21.484Z,6.80
2023-04-14T07:02:47.917Z,6.50
2023-04-14T07:05:16.657Z,5.70
2023-04-14T07:07:46.878Z,6.30
2023-04-14T07:10:28.985Z,4.60
2023-04-14T07:12:59.809Z,4.90
2023-04-14T07:15:26.464Z,5.90
2023-04-14T07:17:53.175Z,6.30
2023-04-14T07:20:20.516Z,4.80
2023-04-14T07:22:47.417Z,5.30
2023-04-14T07:25:15.845Z,4.80
2023-04-14T07:27:49.905Z,5.60
2023-04-14T07:30:24.293Z,4.90
2023-04-14T07:32:50.777Z,5.40
2023-04-14T07:35:18.489Z,5.00
2023-04-14T07:37:46.622Z,6.20
2023-04-14T07:40:16.521Z,5.30
2023-04-14T07:42:44.667Z,6.40
2023-04-14T07:45:11.600Z,5.00
2023-04-14T07:47:38.563Z,5.30
2023-04-14T07:50:05.993Z,4.90
2023-04-14T07:52:32.635Z,5.50
2023-04-14T07:55:03.386Z,4.90
2023-04-14T07:57:30.071Z,5.80
2023-04-14T07:59:56.480Z,5.90
2023-04-14T08:02:23.226Z,6.10
2023-04-14T08:04:55.768Z,6.50
2023-04-14T08:07:22.214Z,4.40
2023-04-14T08:09:50.149Z,4.30
2023-04-14T08:12:16.618Z,4.50
2023-04-14T08:14:47.154Z,4.10
2023-04-14T08:17:16.461Z,3.70
2023-04-14T08:19:42.927Z,4.10
2023-04-14T08:22:09.828Z,3.80
2023-04-14T08:24:39.034Z,4.20
2023-04-14T08:27:08.706Z,4.70
2023-04-14T08:29:35.756Z,4.70
2023-04-14T08:32:06.028Z,4.40
2023-04-14T08:34:32.510Z,3.80
2023-04-14T08:37:02.737Z,4.40
2023-04-14T08:39:31.078Z,4.90
2023-04-14T08:41:57.525Z,3.80
2023-04-14T08:44:27.670Z,3.30
2023-04-14T08:46:56.493Z,4.00
2023-04-14T08:50:02.060Z,2.80
2023-04-14T08:52:33.989Z,4.20
2023-04-14T08:55:04.978Z,4.70
2023-04-14T08:57:34.649Z,3.40
2023-04-14T09:00:09.710Z,4.40
2023-04-14T09:02:39.976Z,3.90
2023-04-14T09:05:08.277Z,3.60
2023-04-14T09:07:36.075Z,4.10
2023-04-14T09:10:08.593Z,4.50
2023-04-14T09:12:41.099Z,4.00
2023-04-14T09:15:10.824Z,4.00
2023-04-14T09:17:41.253Z,3.50
2023-04-14T09:20:34.789Z,3.80
2023-04-14T09:22:56.060Z,3.70
2023-04-14T09:25:26.966Z,3.00
2023-04-14T09:27:54.218Z,3.20
2023-04-14T09:30:21.687Z,3.20
2023-04-14T09:32:57.267Z,2.70
2023-04-14T09:35:45.632Z,2.60
2023-04-14T09:38:13.446Z,3.60
2023-04-14T09:41:10.420Z,3.50
2023-04-14T09:43:38.472Z,3.10
2023-04-14T09:46:12.866Z,3.80
2023-04-14T09:48:57.635Z,3.60
2023-04-14T09:51:31.806Z,2.80
2023-04-14T09:54:05.716Z,3.50
2023-04-14T09:59:02.084Z,3.20
2023-04-14T10:01:33.192Z,2.20
2023-04-14T10:04:03.592Z,2.80
2023-04-14T10:06:33.076Z,3.20
2023-04-14T10:09:03.232Z,2.90
2023-04-14T10:11:33.115Z,2.50
2023-04-14T10:14:04.112Z,3.00
2023-04-14T10:16:33.011Z,2.00
2023-04-14T10:19:00.207Z,2.60
2023-04-14T10:21:32.413Z,2.80
2023-04-14T10:24:00.598Z,2.90
2023-04-14T10:26:30.148Z,2.20
2023-04-14T10:29:01.819Z,2.60
2023-04-14T10:31:38.081Z,2.30
2023-04-14T10:34:15.446Z,3.00
2023-04-14T10:36:44.588Z,1.70
2023-04-14T10:39:20.350Z,2.40
2023-04-14T10:41:48.859Z,2.70
2023-04-14T10:44:34.903Z,1.80
2023-04-14T10:47:07.362Z,2.60
2023-04-14T10:49:37.554Z,2.60
2023-04-14T10:52:25.095Z,2.80
2023-04-14T10:55:18.273Z,1.60
2023-04-14T11:00:39.736Z,1.40
2023-04-14T11:03:18.052Z,2.40
2023-04-14T11:05:50.854Z,1.40
2023-04-14T11:08:34.581Z,2.30
2023-04-14T11:11:06.724Z,2.20
2023-04-14T11:13:35.030Z,1.70
2023-04-14T11:16:07.314Z,2.10
2023-04-14T11:18:45.260Z,2.30
2023-04-14T11:21:16.604Z,1.90
2023-04-14T11:23:44.537Z,2.30
2023-04-14T11:26:13.310Z,1.90
2023-04-14T11:28:44.621Z,1.50
2023-04-14T11:31:14.641Z,2.20
2023-04-14T11:33:41.609Z,2.20
2023-04-14T11:36:12.047Z,2.30
2023-04-14T11:38:39.865Z,2.20
2023-04-14T11:41:09.170Z,2.10
2023-04-14T11:43:37.815Z,1.80
2023-04-14T11:46:08.711Z,2.10
2023-04-14T11:48:36.726Z,2.20
2023-04-14T11:51:05.463Z,2.60
2023-04-14T11:53:33.220Z,1.90
2023-04-14T11:56:01.006Z,1.40
2023-04-14T11:58:28.773Z,2.00
2023-04-14T12:00:56.901Z,2.00
2023-04-14T12:03:32.325Z,1.50
2023-04-14T12:06:07.336Z,1.90
2023-04-14T12:08:39.859Z,2.10
2023-04-14T12:11:15.858Z,2.10
2023-04-14T12:13:45.669Z,2.40
2023-04-14T12:16:15.343Z,2.10
2023-04-14T12:18:44.620Z,1.90
2023-04-14T12:21:18.638Z,1.80
2023-04-14T12:23:50.466Z,1.10
2023-04-14T12:26:19.747Z,1.70
2023-04-14T12:28:56.284Z,2.10
2023-04-14T12:31:30.045Z,1.30
2023-04-14T12:36:48.980Z,1.60
2023-04-14T12:39:19.339Z,1.80
2023-04-14T12:41:47.217Z,1.70
2023-04-14T12:44:20.806Z,1.90
2023-04-14T12:46:52.181Z,2.10
2023-04-14T12:49:36.558Z,2.20
2023-04-14T12:52:07.394Z,1.40
2023-04-14T12:54:52.802Z,1.80
2023-04-14T12:57:21.305Z,1.90
2023-04-14T12:59:49.169Z,1.90
2023-04-14T13:02:15.853Z,1.70
2023-04-14T13:04:43.921Z,1.40
2023-04-14T13:07:10.518Z,1.60
2023-04-14T13:09:37.320Z,1.10
2023-04-14T13:12:04.548Z,1.70
2023-04-14T13:14:31.219Z,1.20
2023-04-14T13:16:59.435Z,1.30
2023-04-14T13:19:27.156Z,0.90
2023-04-14T13:21:53.843Z,1.40
2023-04-14T13:24:20.856Z,1.60
2023-04-14T13:26:51.622Z,1.60
2023-04-14T13:29:18.128Z,1.70
2023-04-14T13:31:46.678Z,1.20
2023-04-14T13:34:14.739Z,1.90
2023-04-14T13:36:42.524Z,2.00
2023-04-14T13:39:10.612Z,1.30
2023-04-14T13:41:39.132Z,1.80
2023-04-14T13:44:05.898Z,1.80
2023-04-14T13:46:40.625Z,2.00
2023-04-14T13:49:08.076Z,1.60
2023-04-14T13:51:34.601Z,1.70
2023-04-14T13:54:01.947Z,2.00
2023-04-14T13:56:29.659Z,1.30
2023-04-14T13:58:56.369Z,1.50
2023-04-14T14:01:24.756Z,1.80
2023-04-14T14:03:51.582Z,1.70
2023-04-14T14:06:19.035Z,1.40
2023-04-14T14:08:45.522Z,1.90
2023-04-14T14:11:12.755Z,1.70
2023-04-14T14:13:39.335Z,1.80
2023-04-14T14:16:10.039Z,1.70
2023-04-14T14:18:37.402Z,1.20
2023-04-14T14:21:04.441Z,1.20
2023-04-14T14:23:31.982Z,1.40
2023-04-14T14:26:01.519Z,1.30
2023-04-14T14:28:28.552Z,1.80
2023-04-14T14:30:55.608Z,1.70
2023-04-14T14:33:23.511Z,1.60
2023-04-14T14:35:50.729Z,1.40
2023-04-14T14:38:18.428Z,1.50
2023-04-14T14:40:45.650Z,1.30
2023-04-14T14:43:12.399Z,1.50
2023-04-14T14:45:44.653Z,1.70
2023-04-14T14:48:12.803Z,1.50
2023-04-14T14:50:40.133Z,1.40
2023-04-14T14:53:06.552Z,1.40
2023-04-14T14:55:34.524Z,1.10
2023-04-14T14:58:03.862Z,1.50
2023-04-14T15:00:31.204Z,1.30
2023-04-14T15:02:58.891Z,1.20
2023-04-14T15:05:26.997Z,0.90
2023-04-14T15:07:53.658Z,1.30
2023-04-14T15:10:20.207Z,1.10
2023-04-14T15:12:47.121Z,1.30
2023-04-14T15:15:13.881Z,0.90
2023-04-14T15:17:42.096Z,1.00
2023-04-14T15:20:09.577Z,1.10
2023-04-14T15:22:36.527Z,1.10
2023-04-14T15:25:06.767Z,1.10
2023-04-14T15:27:38.721Z,1.00
2023-04-14T15:30:08.023Z,0.90
2023-04-14T15:32:34.945Z,1.00
2023-04-14T15:35:13.685Z,1.20
2023-04-14T15:37:40.821Z,1.00
2023-04-14T15:40:09.772Z,1.20
2023-04-14T15:42:41.981Z,1.00
2023-04-14T15:45:11.907Z,1.10
2023-04-14T15:47:43.249Z,1.00
2023-04-14T15:50:10.573Z,1.50
2023-04-14T15:52:40.895Z,1.00
2023-04-14T15:55:10.428Z,1.00
2023-04-14T15:57:37.015Z,0.80
2023-04-14T16:00:07.218Z,0.80
2023-04-14T16:02:43.178Z,1.40
2023-04-14T16:05:11.447Z,1.00
2023-04-14T16:07:39.476Z,0.70
2023-04-14T16:10:08.514Z,0.80
2023-04-14T16:12:41.235Z,0.80
2023-04-14T16:15:09.806Z,0.90
2023-04-14T16:17:37.069Z,0.70
2023-04-14T16:20:06.563Z,0.80
2023-04-14T16:22:34.676Z,1.10
2023-04-14T16:25:04.226Z,0.80
2023-04-14T16:27:30.660Z,0.90
2023-04-14T16:30:05.122Z,0.70
2023-04-14T16:32:32.852Z,0.80
2023-04-14T16:35:00.638Z,0.60
2023-04-14T16:37:30.543Z,1.10
2023-04-14T16:40:00.584Z,0.70
2023-04-14T16:42:28.133Z,0.70
2023-04-14T16:44:56.056Z,0.90
2023-04-14T16:47:23.081Z,0.80
2023-04-14T16:49:54.413Z,0.70
2023-04-14T16:52:24.077Z,0.60
2023-04-14T16:54:50.614Z,0.60
2023-04-14T16:57:20.153Z,0.70
2023-04-14T16:59:48.265Z,0.50
2023-04-14T17:02:14.881Z,0.60
2023-04-14T17:04:42.253Z,0.80
2023-04-14T17:07:09.059Z,0.50
2023-04-14T17:09:35.676Z,0.60
2023-04-14T17:12:06.134Z,0.50
2023-04-14T17:14:35.708Z,0.40
2023-04-14T17:17:05.065Z,0.60
2023-04-14T17:19:32.335Z,0.50
2023-04-14T17:21:58.882Z,0.80
2023-04-14T17:24:34.867Z,0.60
2023-04-14T17:27:01.885Z,0.60
2023-04-14T17:29:28.959Z,0.70
2023-04-14T17:31:55.939Z,0.60
2023-04-14T17:34:23.745Z,0.60
2023-04-14T17:36:50.851Z,0.70
2023-04-14T17:39:20.910Z,0.70
2023-04-14T17:41:47.418Z,0.50
2023-04-14T17:44:15.467Z,0.80
2023-04-14T17:46:43.244Z,0.60
2023-04-14T17:49:12.774Z,0.60
2023-04-14T17:51:39.674Z,0.60
2023-04-14T17:54:08.072Z,0.60
2023-04-14T17:56:36.564Z,0.60
2023-04-14T17:59:03.243Z,0.50
2023-04-14T18:01:29.650Z,0.60
2023-04-14T18:03:58.797Z,0.50
2023-04-14T18:06:26.613Z,0.40
2023-04-14T18:08:53.553Z,0.60
2023-04-14T18:11:25.030Z,0.50
2023-04-14T18:13:57.069Z,0.60
2023-04-14T18:16:24.757Z,0.50
2023-04-14T18:18:53.706Z,0.50
2023-04-14T18:21:21.497Z,0.60
2023-04-14T18:24:47.768Z,0.60
2023-04-14T18:26:36.905Z,0.50
2023-04-14T18:29:04.816Z,0.70
2023-04-14T18:31:34.538Z,0.60
2023-04-14T18:34:05.242Z,0.60
2023-04-14T18:36:33.060Z,0.50
2023-04-14T18:39:00.741Z,0.50
2023-04-14T18:41:30.864Z,0.40
2023-04-14T18:43:58.923Z,0.40
2023-04-14T18:46:27.818Z,0.60
2023-04-14T18:48:59.207Z,0.40
2023-04-14T18:51:27.042Z,0.50
2023-04-14T18:53:56.101Z,0.60
2023-04-14T18:56:25.668Z,0.40
2023-04-14T18:58:53.203Z,0.30
2023-04-14T19:01:21.224Z,0.40
2023-04-14T19:03:47.900Z,0.50
2023-04-14T19:06:14.366Z,0.40
2023-04-14T19:08:42.257Z,0.40
2023-04-14T19:11:11.751Z,0.50
2023-04-14T19:13:39.548Z,0.50
2023-04-14T19:16:12.124Z,0.60
2023-04-14T19:18:39.857Z,0.30
2023-04-14T19:21:08.884Z,0.50
2023-04-14T19:23:37.106Z,0.40
2023-04-14T19:26:07.342Z,0.40
2023-04-14T19:28:34.708Z,0.40
2023-04-14T19:31:03.619Z,0.40
2023-04-14T19:33:30.169Z,0.30
2023-04-14T19:35:57.055Z,0.40
2023-04-14T19:38:24.193Z,0.40
2023-04-14T19:40:55.297Z,0.30
2023-04-14T19:43:25.282Z,0.40
2023-04-14T19:45:53.583Z,0.30
2023-04-14T19:48:24.492Z,0.50
2023-04-14T19:50:53.545Z,0.40
2023-04-14T19:53:21.906Z,0.40
2023-04-14T19:55:56.353Z,0.50
2023-04-14T19:58:28.038Z,0.30
2023-04-14T20:01:00.304Z,0.50
2023-04-14T20:03:27.697Z,0.50
2023-04-14T20:06:01.119Z,0.50
2023-04-14T20:08:27.765Z,0.50
2023-04-14T20:10:54.839Z,0.40
2023-04-14T20:13:27.218Z,0.50
2023-04-14T20:15:54.364Z,0.50
2023-04-14T20:18:24.294Z,0.50
2023-04-14T20:20:54.245Z,0.70
2023-04-14T20:23:21.433Z,0.50
2023-04-14T20:25:50.192Z,0.70
2023-04-14T20:28:19.030Z,1.00
2023-04-14T20:30:48.840Z,0.70
2023-04-14T20:33:18.272Z,0.50
2023-04-14T20:35:45.674Z,0.60
2023-04-14T20:38:14.638Z,0.70
2023-04-14T20:40:43.034Z,0.80
2023-04-14T20:43:10.646Z,0.80
2023-04-14T20:45:37.959Z,0.70
2023-04-14T20:48:06.996Z,0.90
2023-04-14T20:50:33.829Z,0.50
2023-04-14T20:53:01.333Z,0.50
2023-04-14T20:55:32.912Z,0.50
2023-04-14T20:57:59.734Z,0.60
2023-04-14T21:00:34.169Z,0.40
2023-04-14T21:03:02.852Z,0.50
2023-04-14T21:05:30.709Z,0.40
2023-04-14T21:07:59.191Z,0.50
2023-04-14T21:10:26.310Z,0.40
2023-04-14T21:15:29.090Z,0.50
2023-04-14T21:15:55.758Z,0.60
2023-04-14T21:18:23.192Z,0.40
2023-04-14T21:20:52.573Z,0.30
2023-04-14T21:23:20.120Z,0.30
2023-04-14T21:25:50.304Z,0.40
2023-04-14T21:28:17.654Z,0.40
2023-04-14T21:30:45.905Z,0.50
2023-04-14T21:33:13.206Z,0.60
2023-04-14T21:35:41.643Z,0.60
2023-04-14T21:38:09.346Z,0.50
2023-04-14T21:40:36.225Z,0.60
2023-04-14T21:43:03.649Z,0.40
2023-04-14T21:45:30.290Z,0.60
2023-04-14T21:47:58.443Z,0.50
2023-04-14T21:50:25.155Z,0.70
2023-04-14T21:52:53.236Z,0.70
2023-04-14T21:55:20.971Z,0.60
2023-04-14T21:57:49.689Z,0.60
2023-04-14T22:00:21.385Z,0.50
2023-04-14T22:02:49.105Z,0.70
2023-04-14T22:05:15.734Z,0.50
2023-04-14T22:07:47.756Z,0.40
2023-04-14T22:10:16.158Z,0.60
2023-04-14T22:12:44.695Z,0.50
2023-04-14T22:15:13.988Z,0.70
2023-04-14T22:17:41.936Z,0.60
2023-04-14T22:20:09.844Z,0.70
2023-04-14T22:22:37.303Z,0.40
2023-04-14T22:25:04.409Z,0.40
2023-04-14T22:27:37.126Z,0.40
2023-04-14T22:30:04.485Z,0.30
2023-04-14T22:32:32.406Z,0.50
2023-04-14T22:35:01.606Z,0.70
2023-04-14T22:37:28.337Z,0.70
2023-04-14T22:39:55.619Z,0.70
2023-04-14T22:42:23.785Z,0.80
2023-04-14T22:44:53.885Z,0.90
2023-04-14T22:47:22.806Z,0.70
2023-04-14T22:49:50.956Z,0.80
2023-04-14T22:52:19.803Z,0.80
2023-04-14T22:54:49.271Z,0.70
2023-04-14T22:57:16.475Z,0.60
2023-04-14T22:59:43.079Z,0.60
2023-04-14T23:02:11.716Z,0.90
2023-04-14T23:04:39.546Z,1.30
2023-04-14T23:07:06.992Z,0.90
2023-04-14T23:09:34.947Z,0.60
2023-04-14T23:12:03.817Z,0.40
2023-04-14T23:14:39.040Z,0.50
2023-04-14T23:17:05.742Z,0.40
2023-04-14T23:19:33.618Z,0.50
2023-04-14T23:22:01.976Z,0.50
2023-04-14T23:24:28.833Z,0.50
2023-04-14T23:26:57.433Z,0.40
2023-04-14T23:29:23.847Z,0.70
2023-04-14T23:31:52.132Z,0.40
2023-04-14T23:34:18.877Z,0.40
2023-04-14T23:36:47.775Z,0.60
2023-04-14T23:39:14.587Z,0.60
2023-04-14T23:41:43.030Z,0.60
2023-04-14T23:44:09.704Z,0.50
2023-04-14T23:46:36.515Z,0.50
2023-04-14T23:49:10.301Z,0.60
2023-04-14T23:51:53.608Z,0.70
2023-04-14T23:54:20.392Z,0.60
2023-04-14T23:56:47.107Z,1.10
2023-04-14T23:59:14.477Z,2.30
